sensor_id;sensor_type;location;lat;lon;timestamp;P1;durP1;ratioP1;P2;durP2;ratioP2
39918;SDS011;25589;51.552;13.424;2023-02-15T00:00:19;21.83;;;13.77;;
39918;SDS011;25589;51.552;13.424;2023-02-15T00:02:45;24.10;;;13.95;;
39918;SDS011;25589;51.552;13.424;2023-02-15T00:05:11;22.27;;;13.45;;
39918;SDS011;25589;51.552;13.424;2023-02-15T00:07:36;23.88;;;13.38;;
39918;SDS011;25589;51.552;13.424;2023-02-15T00:10:03;23.35;;;13.40;;
39918;SDS011;25589;51.552;13.424;2023-02-15T00:12:29;20.85;;;12.70;;
39918;SDS011;25589;51.552;13.424;2023-02-15T00:14:54;24.60;;;13.95;;
39918;SDS011;25589;51.552;13.424;2023-02-15T00:17:20;22.08;;;13.65;;
39918;SDS011;25589;51.552;13.424;2023-02-15T00:19:46;22.55;;;14.00;;
39918;SDS011;25589;51.552;13.424;2023-02-15T00:22:12;21.88;;;13.65;;
39918;SDS011;25589;51.552;13.424;2023-02-15T00:24:37;21.25;;;13.50;;
39918;SDS011;25589;51.552;13.424;2023-02-15T00:27:03;22.00;;;12.90;;
39918;SDS011;25589;51.552;13.424;2023-02-15T00:29:29;20.02;;;12.25;;
39918;SDS011;25589;51.552;13.424;2023-02-15T00:31:54;21.45;;;13.13;;
39918;SDS011;25589;51.552;13.424;2023-02-15T00:34:23;20.42;;;13.48;;
39918;SDS011;25589;51.552;13.424;2023-02-15T00:36:51;19.40;;;12.80;;
39918;SDS011;25589;51.552;13.424;2023-02-15T00:39:17;23.15;;;14.15;;
39918;SDS011;25589;51.552;13.424;2023-02-15T00:41:43;23.27;;;13.63;;
39918;SDS011;25589;51.552;13.424;2023-02-15T00:44:10;23.30;;;13.93;;
39918;SDS011;25589;51.552;13.424;2023-02-15T00:46:36;20.27;;;13.02;;
39918;SDS011;25589;51.552;13.424;2023-02-15T00:49:02;22.05;;;12.63;;
39918;SDS011;25589;51.552;13.424;2023-02-15T00:51:29;22.88;;;13.30;;
39918;SDS011;25589;51.552;13.424;2023-02-15T00:53:56;20.20;;;12.88;;
39918;SDS011;25589;51.552;13.424;2023-02-15T00:56:21;22.40;;;12.95;;
39918;SDS011;25589;51.552;13.424;2023-02-15T00:58:47;22.80;;;14.18;;
39918;SDS011;25589;51.552;13.424;2023-02-15T01:01:14;19.63;;;12.18;;
39918;SDS011;25589;51.552;13.424;2023-02-15T01:03:43;19.00;;;12.45;;
39918;SDS011;25589;51.552;13.424;2023-02-15T01:06:09;21.23;;;12.93;;
39918;SDS011;25589;51.552;13.424;2023-02-15T01:08:36;22.52;;;13.38;;
39918;SDS011;25589;51.552;13.424;2023-02-15T01:11:05;22.67;;;13.55;;
39918;SDS011;25589;51.552;13.424;2023-02-15T01:13:32;21.52;;;12.50;;
39918;SDS011;25589;51.552;13.424;2023-02-15T01:15:58;22.17;;;12.68;;
39918;SDS011;25589;51.552;13.424;2023-02-15T01:18:25;22.58;;;13.65;;
39918;SDS011;25589;51.552;13.424;2023-02-15T01:20:51;22.35;;;13.90;;
39918;SDS011;25589;51.552;13.424;2023-02-15T01:23:17;23.65;;;13.50;;
39918;SDS011;25589;51.552;13.424;2023-02-15T01:25:45;27.00;;;13.68;;
39918;SDS011;25589;51.552;13.424;2023-02-15T01:28:10;25.00;;;14.25;;
39918;SDS011;25589;51.552;13.424;2023-02-15T01:30:37;22.67;;;13.65;;
39918;SDS011;25589;51.552;13.424;2023-02-15T01:33:03;24.40;;;13.95;;
39918;SDS011;25589;51.552;13.424;2023-02-15T01:35:30;23.92;;;14.77;;
39918;SDS011;25589;51.552;13.424;2023-02-15T01:37:55;24.48;;;14.68;;
39918;SDS011;25589;51.552;13.424;2023-02-15T01:40:21;26.85;;;15.20;;
39918;SDS011;25589;51.552;13.424;2023-02-15T01:42:50;27.80;;;16.15;;
39918;SDS011;25589;51.552;13.424;2023-02-15T01:45:20;26.27;;;15.25;;
39918;SDS011;25589;51.552;13.424;2023-02-15T01:47:53;25.63;;;15.25;;
39918;SDS011;25589;51.552;13.424;2023-02-15T01:53:06;26.45;;;14.80;;
39918;SDS011;25589;51.552;13.424;2023-02-15T01:55:36;24.95;;;14.00;;
39918;SDS011;25589;51.552;13.424;2023-02-15T01:58:04;23.63;;;13.35;;
39918;SDS011;25589;51.552;13.424;2023-02-15T02:00:31;24.27;;;13.38;;
39918;SDS011;25589;51.552;13.424;2023-02-15T02:02:58;24.92;;;14.02;;
39918;SDS011;25589;51.552;13.424;2023-02-15T02:05:25;25.40;;;14.68;;
39918;SDS011;25589;51.552;13.424;2023-02-15T02:07:51;26.13;;;14.63;;
39918;SDS011;25589;51.552;13.424;2023-02-15T02:10:20;23.83;;;14.15;;
39918;SDS011;25589;51.552;13.424;2023-02-15T02:12:49;27.70;;;14.80;;
39918;SDS011;25589;51.552;13.424;2023-02-15T02:15:20;25.30;;;14.45;;
39918;SDS011;25589;51.552;13.424;2023-02-15T02:21:20;25.08;;;13.75;;
39918;SDS011;25589;51.552;13.424;2023-02-15T02:26:22;23.85;;;13.07;;
39918;SDS011;25589;51.552;13.424;2023-02-15T02:35:00;30.92;;;16.85;;
39918;SDS011;25589;51.552;13.424;2023-02-15T02:37:37;23.30;;;13.30;;
39918;SDS011;25589;51.552;13.424;2023-02-15T02:40:27;29.50;;;16.20;;
39918;SDS011;25589;51.552;13.424;2023-02-15T02:43:20;32.42;;;16.90;;
39918;SDS011;25589;51.552;13.424;2023-02-15T02:45:49;32.13;;;16.30;;
39918;SDS011;25589;51.552;13.424;2023-02-15T02:48:25;29.10;;;16.25;;
39918;SDS011;25589;51.552;13.424;2023-02-15T02:50:54;34.92;;;17.13;;
39918;SDS011;25589;51.552;13.424;2023-02-15T02:53:19;32.72;;;16.65;;
39918;SDS011;25589;51.552;13.424;2023-02-15T02:55:50;30.38;;;16.83;;
39918;SDS011;25589;51.552;13.424;2023-02-15T02:58:35;31.23;;;16.60;;
39918;SDS011;25589;51.552;13.424;2023-02-15T03:01:15;26.80;;;15.43;;
39918;SDS011;25589;51.552;13.424;2023-02-15T03:03:52;25.23;;;14.60;;
39918;SDS011;25589;51.552;13.424;2023-02-15T03:07:23;25.92;;;14.90;;
39918;SDS011;25589;51.552;13.424;2023-02-15T03:13:38;25.70;;;14.48;;
39918;SDS011;25589;51.552;13.424;2023-02-15T03:16:05;24.95;;;14.32;;
39918;SDS011;25589;51.552;13.424;2023-02-15T03:18:55;25.63;;;14.32;;
39918;SDS011;25589;51.552;13.424;2023-02-15T03:21:34;22.60;;;13.88;;
39918;SDS011;25589;51.552;13.424;2023-02-15T03:24:07;24.40;;;13.80;;
39918;SDS011;25589;51.552;13.424;2023-02-15T03:26:35;21.63;;;13.52;;
39918;SDS011;25589;51.552;13.424;2023-02-15T03:29:02;23.13;;;12.43;;
39918;SDS011;25589;51.552;13.424;2023-02-15T03:31:31;19.38;;;12.35;;
39918;SDS011;25589;51.552;13.424;2023-02-15T03:34:02;22.00;;;12.45;;
39918;SDS011;25589;51.552;13.424;2023-02-15T03:36:32;21.23;;;12.57;;
39918;SDS011;25589;51.552;13.424;2023-02-15T03:39:20;19.95;;;13.23;;
39918;SDS011;25589;51.552;13.424;2023-02-15T03:41:51;20.73;;;12.88;;
39918;SDS011;25589;51.552;13.424;2023-02-15T03:44:30;22.48;;;13.00;;
39918;SDS011;25589;51.552;13.424;2023-02-15T03:46:59;21.83;;;12.80;;
39918;SDS011;25589;51.552;13.424;2023-02-15T03:49:39;22.80;;;12.27;;
39918;SDS011;25589;51.552;13.424;2023-02-15T03:52:13;22.92;;;13.70;;
39918;SDS011;25589;51.552;13.424;2023-02-15T03:54:40;22.10;;;12.90;;
39918;SDS011;25589;51.552;13.424;2023-02-15T03:57:07;23.58;;;14.02;;
39918;SDS011;25589;51.552;13.424;2023-02-15T04:00:02;23.30;;;13.93;;
39918;SDS011;25589;51.552;13.424;2023-02-15T04:05:40;21.23;;;12.50;;
39918;SDS011;25589;51.552;13.424;2023-02-15T04:08:07;23.50;;;14.07;;
39918;SDS011;25589;51.552;13.424;2023-02-15T04:10:32;28.35;;;14.40;;
39918;SDS011;25589;51.552;13.424;2023-02-15T04:13:16;25.58;;;13.63;;
39918;SDS011;25589;51.552;13.424;2023-02-15T04:15:43;22.80;;;13.40;;
39918;SDS011;25589;51.552;13.424;2023-02-15T04:18:27;25.25;;;13.40;;
39918;SDS011;25589;51.552;13.424;2023-02-15T04:21:11;22.70;;;12.65;;
39918;SDS011;25589;51.552;13.424;2023-02-15T04:23:55;24.17;;;13.18;;
39918;SDS011;25589;51.552;13.424;2023-02-15T04:26:40;23.80;;;13.00;;
39918;SDS011;25589;51.552;13.424;2023-02-15T04:29:05;25.25;;;14.65;;
39918;SDS011;25589;51.552;13.424;2023-02-15T04:31:31;23.15;;;13.70;;
39918;SDS011;25589;51.552;13.424;2023-02-15T04:33:56;28.27;;;14.45;;
39918;SDS011;25589;51.552;13.424;2023-02-15T04:36:22;23.88;;;14.20;;
39918;SDS011;25589;51.552;13.424;2023-02-15T04:38:47;26.00;;;13.60;;
39918;SDS011;25589;51.552;13.424;2023-02-15T04:41:13;25.10;;;13.00;;
39918;SDS011;25589;51.552;13.424;2023-02-15T04:43:38;30.55;;;15.07;;
39918;SDS011;25589;51.552;13.424;2023-02-15T04:46:04;29.10;;;14.52;;
39918;SDS011;25589;51.552;13.424;2023-02-15T04:48:30;26.95;;;14.80;;
39918;SDS011;25589;51.552;13.424;2023-02-15T04:50:55;24.13;;;13.68;;
39918;SDS011;25589;51.552;13.424;2023-02-15T04:53:21;30.23;;;14.93;;
39918;SDS011;25589;51.552;13.424;2023-02-15T04:55:47;29.48;;;15.65;;
39918;SDS011;25589;51.552;13.424;2023-02-15T04:58:13;27.67;;;14.85;;
39918;SDS011;25589;51.552;13.424;2023-02-15T05:00:38;26.67;;;14.95;;
39918;SDS011;25589;51.552;13.424;2023-02-15T05:03:04;25.98;;;14.63;;
39918;SDS011;25589;51.552;13.424;2023-02-15T05:05:29;28.52;;;14.95;;
39918;SDS011;25589;51.552;13.424;2023-02-15T05:07:55;32.35;;;15.95;;
39918;SDS011;25589;51.552;13.424;2023-02-15T05:10:21;26.88;;;15.18;;
39918;SDS011;25589;51.552;13.424;2023-02-15T05:12:47;30.05;;;15.43;;
39918;SDS011;25589;51.552;13.424;2023-02-15T05:15:12;30.52;;;16.05;;
39918;SDS011;25589;51.552;13.424;2023-02-15T05:17:38;32.00;;;15.35;;
39918;SDS011;25589;51.552;13.424;2023-02-15T05:20:04;28.42;;;15.30;;
39918;SDS011;25589;51.552;13.424;2023-02-15T05:22:30;29.60;;;15.40;;
39918;SDS011;25589;51.552;13.424;2023-02-15T05:24:55;27.23;;;14.70;;
39918;SDS011;25589;51.552;13.424;2023-02-15T05:27:39;31.40;;;15.68;;
39918;SDS011;25589;51.552;13.424;2023-02-15T05:30:24;28.52;;;15.35;;
39918;SDS011;25589;51.552;13.424;2023-02-15T05:32:49;29.85;;;15.65;;
39918;SDS011;25589;51.552;13.424;2023-02-15T05:35:15;31.90;;;15.95;;
39918;SDS011;25589;51.552;13.424;2023-02-15T05:37:41;29.85;;;15.27;;
39918;SDS011;25589;51.552;13.424;2023-02-15T05:40:07;28.13;;;15.55;;
39918;SDS011;25589;51.552;13.424;2023-02-15T05:42:33;32.03;;;15.43;;
39918;SDS011;25589;51.552;13.424;2023-02-15T05:44:59;31.77;;;15.82;;
39918;SDS011;25589;51.552;13.424;2023-02-15T05:47:25;31.25;;;16.02;;
39918;SDS011;25589;51.552;13.424;2023-02-15T05:49:50;31.70;;;15.43;;
39918;SDS011;25589;51.552;13.424;2023-02-15T05:52:16;33.50;;;16.33;;
39918;SDS011;25589;51.552;13.424;2023-02-15T05:54:42;31.77;;;16.85;;
39918;SDS011;25589;51.552;13.424;2023-02-15T05:57:07;31.77;;;15.25;;
39918;SDS011;25589;51.552;13.424;2023-02-15T05:59:33;35.63;;;17.27;;
39918;SDS011;25589;51.552;13.424;2023-02-15T06:01:58;32.70;;;16.42;;
39918;SDS011;25589;51.552;13.424;2023-02-15T06:04:24;32.15;;;15.88;;
39918;SDS011;25589;51.552;13.424;2023-02-15T06:06:49;33.97;;;17.60;;
39918;SDS011;25589;51.552;13.424;2023-02-15T06:09:15;55.22;;;26.58;;
39918;SDS011;25589;51.552;13.424;2023-02-15T06:11:43;36.03;;;16.67;;
39918;SDS011;25589;51.552;13.424;2023-02-15T06:14:09;33.95;;;18.27;;
39918;SDS011;25589;51.552;13.424;2023-02-15T06:16:35;30.45;;;15.85;;
39918;SDS011;25589;51.552;13.424;2023-02-15T06:19:01;99.35;;;52.05;;
39918;SDS011;25589;51.552;13.424;2023-02-15T06:21:27;35.75;;;17.48;;
39918;SDS011;25589;51.552;13.424;2023-02-15T06:23:53;34.15;;;16.88;;
39918;SDS011;25589;51.552;13.424;2023-02-15T06:26:19;39.78;;;17.60;;
39918;SDS011;25589;51.552;13.424;2023-02-15T06:28:44;52.45;;;28.05;;
39918;SDS011;25589;51.552;13.424;2023-02-15T06:31:10;33.88;;;16.60;;
39918;SDS011;25589;51.552;13.424;2023-02-15T06:33:35;37.78;;;17.02;;
39918;SDS011;25589;51.552;13.424;2023-02-15T06:36:01;37.70;;;16.98;;
39918;SDS011;25589;51.552;13.424;2023-02-15T06:38:28;33.67;;;17.10;;
39918;SDS011;25589;51.552;13.424;2023-02-15T06:40:54;36.78;;;18.05;;
39918;SDS011;25589;51.552;13.424;2023-02-15T06:43:20;34.78;;;17.70;;
39918;SDS011;25589;51.552;13.424;2023-02-15T06:45:45;32.25;;;15.90;;
39918;SDS011;25589;51.552;13.424;2023-02-15T06:48:11;32.03;;;15.82;;
39918;SDS011;25589;51.552;13.424;2023-02-15T06:50:36;36.00;;;17.27;;
39918;SDS011;25589;51.552;13.424;2023-02-15T06:53:02;35.97;;;17.77;;
39918;SDS011;25589;51.552;13.424;2023-02-15T06:55:28;35.78;;;16.92;;
39918;SDS011;25589;51.552;13.424;2023-02-15T06:57:53;33.92;;;17.13;;
39918;SDS011;25589;51.552;13.424;2023-02-15T07:00:19;39.55;;;18.60;;
39918;SDS011;25589;51.552;13.424;2023-02-15T07:02:47;39.92;;;17.35;;
39918;SDS011;25589;51.552;13.424;2023-02-15T07:05:12;31.38;;;15.35;;
39918;SDS011;25589;51.552;13.424;2023-02-15T07:07:38;37.33;;;17.33;;
39918;SDS011;25589;51.552;13.424;2023-02-15T07:10:03;35.65;;;17.65;;
39918;SDS011;25589;51.552;13.424;2023-02-15T07:12:29;36.22;;;17.80;;
39918;SDS011;25589;51.552;13.424;2023-02-15T07:15:08;33.55;;;17.48;;
39918;SDS011;25589;51.552;13.424;2023-02-15T07:17:39;41.28;;;18.33;;
39918;SDS011;25589;51.552;13.424;2023-02-15T07:20:06;39.50;;;18.38;;
39918;SDS011;25589;51.552;13.424;2023-02-15T07:22:36;35.63;;;18.08;;
39918;SDS011;25589;51.552;13.424;2023-02-15T07:25:06;35.90;;;17.75;;
39918;SDS011;25589;51.552;13.424;2023-02-15T07:27:32;36.05;;;17.05;;
39918;SDS011;25589;51.552;13.424;2023-02-15T07:29:58;37.20;;;16.65;;
39918;SDS011;25589;51.552;13.424;2023-02-15T07:32:26;36.53;;;17.85;;
39918;SDS011;25589;51.552;13.424;2023-02-15T07:34:52;33.20;;;16.83;;
39918;SDS011;25589;51.552;13.424;2023-02-15T07:37:18;38.53;;;17.95;;
39918;SDS011;25589;51.552;13.424;2023-02-15T07:39:43;36.08;;;17.10;;
39918;SDS011;25589;51.552;13.424;2023-02-15T07:42:09;35.85;;;17.13;;
39918;SDS011;25589;51.552;13.424;2023-02-15T07:44:35;36.67;;;17.25;;
39918;SDS011;25589;51.552;13.424;2023-02-15T07:47:00;35.53;;;17.20;;
39918;SDS011;25589;51.552;13.424;2023-02-15T07:49:26;37.78;;;16.70;;
39918;SDS011;25589;51.552;13.424;2023-02-15T07:51:51;43.22;;;18.27;;
39918;SDS011;25589;51.552;13.424;2023-02-15T07:54:17;36.17;;;17.15;;
39918;SDS011;25589;51.552;13.424;2023-02-15T07:56:42;44.28;;;19.48;;
39918;SDS011;25589;51.552;13.424;2023-02-15T07:59:08;45.65;;;20.92;;
39918;SDS011;25589;51.552;13.424;2023-02-15T08:01:35;57.38;;;27.25;;
39918;SDS011;25589;51.552;13.424;2023-02-15T08:04:02;57.92;;;28.80;;
39918;SDS011;25589;51.552;13.424;2023-02-15T08:06:29;41.67;;;19.85;;
39918;SDS011;25589;51.552;13.424;2023-02-15T08:08:57;95.65;;;34.88;;
39918;SDS011;25589;51.552;13.424;2023-02-15T08:11:24;47.17;;;21.92;;
39918;SDS011;25589;51.552;13.424;2023-02-15T08:13:54;53.88;;;24.80;;
39918;SDS011;25589;51.552;13.424;2023-02-15T08:16:33;42.72;;;20.35;;
39918;SDS011;25589;51.552;13.424;2023-02-15T08:19:22;34.97;;;17.10;;
39918;SDS011;25589;51.552;13.424;2023-02-15T08:21:47;40.75;;;20.10;;
39918;SDS011;25589;51.552;13.424;2023-02-15T08:24:24;45.70;;;19.75;;
39918;SDS011;25589;51.552;13.424;2023-02-15T08:26:52;95.68;;;36.95;;
39918;SDS011;25589;51.552;13.424;2023-02-15T08:29:19;51.05;;;22.60;;
39918;SDS011;25589;51.552;13.424;2023-02-15T08:31:49;37.42;;;17.23;;
39918;SDS011;25589;51.552;13.424;2023-02-15T08:34:17;50.70;;;22.05;;
39918;SDS011;25589;51.552;13.424;2023-02-15T08:36:44;55.38;;;23.35;;
39918;SDS011;25589;51.552;13.424;2023-02-15T08:39:10;60.97;;;26.83;;
39918;SDS011;25589;51.552;13.424;2023-02-15T08:41:37;47.70;;;21.63;;
39918;SDS011;25589;51.552;13.424;2023-02-15T08:44:07;67.20;;;28.08;;
39918;SDS011;25589;51.552;13.424;2023-02-15T08:46:34;60.40;;;26.23;;
39918;SDS011;25589;51.552;13.424;2023-02-15T08:49:01;56.45;;;23.50;;
39918;SDS011;25589;51.552;13.424;2023-02-15T08:51:31;64.88;;;26.85;;
39918;SDS011;25589;51.552;13.424;2023-02-15T08:53:58;31.70;;;15.02;;
39918;SDS011;25589;51.552;13.424;2023-02-15T08:56:27;66.45;;;26.40;;
39918;SDS011;25589;51.552;13.424;2023-02-15T08:58:55;57.13;;;25.02;;
39918;SDS011;25589;51.552;13.424;2023-02-15T09:01:22;30.27;;;16.40;;
39918;SDS011;25589;51.552;13.424;2023-02-15T09:03:50;58.58;;;23.63;;
39918;SDS011;25589;51.552;13.424;2023-02-15T09:06:19;26.67;;;14.40;;
39918;SDS011;25589;51.552;13.424;2023-02-15T09:08:46;34.13;;;16.80;;
39918;SDS011;25589;51.552;13.424;2023-02-15T09:11:13;34.00;;;16.23;;
39918;SDS011;25589;51.552;13.424;2023-02-15T09:13:47;34.75;;;16.15;;
39918;SDS011;25589;51.552;13.424;2023-02-15T09:16:14;35.05;;;16.85;;
39918;SDS011;25589;51.552;13.424;2023-02-15T09:18:41;64.53;;;25.30;;
39918;SDS011;25589;51.552;13.424;2023-02-15T09:21:11;36.53;;;17.13;;
39918;SDS011;25589;51.552;13.424;2023-02-15T09:23:39;35.78;;;17.23;;
39918;SDS011;25589;51.552;13.424;2023-02-15T09:26:09;29.85;;;14.13;;
39918;SDS011;25589;51.552;13.424;2023-02-15T09:28:36;35.67;;;16.05;;
39918;SDS011;25589;51.552;13.424;2023-02-15T09:33:33;32.78;;;15.77;;
39918;SDS011;25589;51.552;13.424;2023-02-15T09:35:59;57.47;;;23.73;;
39918;SDS011;25589;51.552;13.424;2023-02-15T09:38:25;47.90;;;19.77;;
39918;SDS011;25589;51.552;13.424;2023-02-15T09:40:56;30.73;;;14.50;;
39918;SDS011;25589;51.552;13.424;2023-02-15T09:43:38;38.42;;;17.88;;
39918;SDS011;25589;51.552;13.424;2023-02-15T09:46:22;36.72;;;14.98;;
39918;SDS011;25589;51.552;13.424;2023-02-15T09:49:22;46.40;;;18.55;;
39918;SDS011;25589;51.552;13.424;2023-02-15T09:51:58;37.40;;;15.18;;
39918;SDS011;25589;51.552;13.424;2023-02-15T09:54:52;38.72;;;15.90;;
39918;SDS011;25589;51.552;13.424;2023-02-15T10:00:23;45.30;;;17.88;;
39918;SDS011;25589;51.552;13.424;2023-02-15T10:03:25;22.40;;;11.90;;
39918;SDS011;25589;51.552;13.424;2023-02-15T10:06:08;42.05;;;16.05;;
39918;SDS011;25589;51.552;13.424;2023-02-15T10:12:03;36.58;;;14.73;;
39918;SDS011;25589;51.552;13.424;2023-02-15T10:23:36;27.80;;;14.35;;
39918;SDS011;25589;51.552;13.424;2023-02-15T10:26:18;27.75;;;13.63;;
39918;SDS011;25589;51.552;13.424;2023-02-15T10:34:20;17.60;;;10.63;;
39918;SDS011;25589;51.552;13.424;2023-02-15T10:39:44;24.17;;;12.18;;
39918;SDS011;25589;51.552;13.424;2023-02-15T10:42:25;23.48;;;12.50;;
39918;SDS011;25589;51.552;13.424;2023-02-15T10:45:21;23.17;;;11.95;;
39918;SDS011;25589;51.552;13.424;2023-02-15T10:48:16;20.48;;;11.60;;
39918;SDS011;25589;51.552;13.424;2023-02-15T10:51:02;22.50;;;12.85;;
39918;SDS011;25589;51.552;13.424;2023-02-15T10:56:29;23.40;;;11.60;;
39918;SDS011;25589;51.552;13.424;2023-02-15T10:59:15;30.00;;;15.15;;
39918;SDS011;25589;51.552;13.424;2023-02-15T11:02:02;20.40;;;10.23;;
39918;SDS011;25589;51.552;13.424;2023-02-15T11:04:53;19.63;;;11.43;;
39918;SDS011;25589;51.552;13.424;2023-02-15T11:07:41;27.85;;;12.57;;
39918;SDS011;25589;51.552;13.424;2023-02-15T11:10:19;18.33;;;9.88;;
39918;SDS011;25589;51.552;13.424;2023-02-15T11:12:54;18.85;;;9.77;;
39918;SDS011;25589;51.552;13.424;2023-02-15T11:15:35;18.48;;;9.90;;
39918;SDS011;25589;51.552;13.424;2023-02-15T11:18:19;15.73;;;9.13;;
39918;SDS011;25589;51.552;13.424;2023-02-15T11:20:59;18.98;;;10.15;;
39918;SDS011;25589;51.552;13.424;2023-02-15T11:23:28;21.20;;;10.55;;
39918;SDS011;25589;51.552;13.424;2023-02-15T11:26:00;18.65;;;9.65;;
39918;SDS011;25589;51.552;13.424;2023-02-15T11:28:33;19.02;;;10.18;;
39918;SDS011;25589;51.552;13.424;2023-02-15T11:31:15;21.75;;;10.98;;
39918;SDS011;25589;51.552;13.424;2023-02-15T11:33:44;20.67;;;10.07;;
39918;SDS011;25589;51.552;13.424;2023-02-15T11:36:22;17.73;;;9.32;;
39918;SDS011;25589;51.552;13.424;2023-02-15T11:38:51;21.25;;;10.90;;
39918;SDS011;25589;51.552;13.424;2023-02-15T11:41:27;16.45;;;8.93;;
39918;SDS011;25589;51.552;13.424;2023-02-15T11:43:56;17.95;;;8.02;;
39918;SDS011;25589;51.552;13.424;2023-02-15T11:46:23;11.35;;;7.75;;
39918;SDS011;25589;51.552;13.424;2023-02-15T11:48:49;13.60;;;6.80;;
39918;SDS011;25589;51.552;13.424;2023-02-15T11:51:17;13.07;;;7.43;;
39918;SDS011;25589;51.552;13.424;2023-02-15T11:53:45;12.70;;;7.50;;
39918;SDS011;25589;51.552;13.424;2023-02-15T11:56:15;12.30;;;7.43;;
39918;SDS011;25589;51.552;13.424;2023-02-15T11:58:47;12.95;;;8.00;;
39918;SDS011;25589;51.552;13.424;2023-02-15T12:01:50;17.50;;;9.02;;
39918;SDS011;25589;51.552;13.424;2023-02-15T12:04:15;14.13;;;7.03;;
39918;SDS011;25589;51.552;13.424;2023-02-15T12:06:51;12.40;;;6.40;;
39918;SDS011;25589;51.552;13.424;2023-02-15T12:09:29;10.25;;;6.80;;
39918;SDS011;25589;51.552;13.424;2023-02-15T12:12:19;9.73;;;6.38;;
39918;SDS011;25589;51.552;13.424;2023-02-15T12:14:47;11.45;;;7.20;;
39918;SDS011;25589;51.552;13.424;2023-02-15T12:22:53;10.70;;;6.68;;
39918;SDS011;25589;51.552;13.424;2023-02-15T12:28:05;14.90;;;7.10;;
39918;SDS011;25589;51.552;13.424;2023-02-15T12:30:54;10.90;;;6.75;;
39918;SDS011;25589;51.552;13.424;2023-02-15T12:33:41;15.88;;;7.28;;
39918;SDS011;25589;51.552;13.424;2023-02-15T12:44:22;14.18;;;7.55;;
39918;SDS011;25589;51.552;13.424;2023-02-15T12:46:58;10.43;;;6.32;;
39918;SDS011;25589;51.552;13.424;2023-02-15T12:49:32;11.75;;;6.50;;
39918;SDS011;25589;51.552;13.424;2023-02-15T12:52:03;10.40;;;6.75;;
39918;SDS011;25589;51.552;13.424;2023-02-15T12:57:12;16.90;;;7.43;;
39918;SDS011;25589;51.552;13.424;2023-02-15T13:00:05;11.55;;;6.40;;
39918;SDS011;25589;51.552;13.424;2023-02-15T13:02:44;8.48;;;5.50;;
39918;SDS011;25589;51.552;13.424;2023-02-15T13:05:26;10.73;;;5.45;;
39918;SDS011;25589;51.552;13.424;2023-02-15T13:07:56;8.15;;;5.20;;
39918;SDS011;25589;51.552;13.424;2023-02-15T13:10:25;8.63;;;5.95;;
39918;SDS011;25589;51.552;13.424;2023-02-15T13:13:22;7.95;;;5.13;;
39918;SDS011;25589;51.552;13.424;2023-02-15T13:15:51;7.25;;;4.57;;
39918;SDS011;25589;51.552;13.424;2023-02-15T13:18:34;7.93;;;4.57;;
39918;SDS011;25589;51.552;13.424;2023-02-15T13:23:56;7.68;;;4.72;;
39918;SDS011;25589;51.552;13.424;2023-02-15T13:26:26;7.18;;;4.75;;
39918;SDS011;25589;51.552;13.424;2023-02-15T13:28:56;9.65;;;4.75;;
39918;SDS011;25589;51.552;13.424;2023-02-15T13:31:33;7.57;;;4.68;;
39918;SDS011;25589;51.552;13.424;2023-02-15T13:34:01;7.88;;;5.35;;
39918;SDS011;25589;51.552;13.424;2023-02-15T13:36:44;6.35;;;4.57;;
39918;SDS011;25589;51.552;13.424;2023-02-15T13:39:24;8.90;;;4.95;;
39918;SDS011;25589;51.552;13.424;2023-02-15T13:47:30;7.57;;;4.75;;
39918;SDS011;25589;51.552;13.424;2023-02-15T13:56:02;6.97;;;5.00;;
39918;SDS011;25589;51.552;13.424;2023-02-15T13:58:41;9.35;;;4.85;;
39918;SDS011;25589;51.552;13.424;2023-02-15T14:04:27;7.88;;;5.22;;
39918;SDS011;25589;51.552;13.424;2023-02-15T14:15:56;9.32;;;5.70;;
39918;SDS011;25589;51.552;13.424;2023-02-15T14:18:36;11.48;;;6.25;;
39918;SDS011;25589;51.552;13.424;2023-02-15T14:24:01;10.40;;;6.25;;
39918;SDS011;25589;51.552;13.424;2023-02-15T14:26:40;10.32;;;6.00;;
39918;SDS011;25589;51.552;13.424;2023-02-15T14:29:28;10.40;;;6.53;;
39918;SDS011;25589;51.552;13.424;2023-02-15T14:32:08;10.88;;;6.05;;
39918;SDS011;25589;51.552;13.424;2023-02-15T14:34:50;10.10;;;6.22;;
39918;SDS011;25589;51.552;13.424;2023-02-15T14:37:21;11.02;;;6.93;;
39918;SDS011;25589;51.552;13.424;2023-02-15T14:40:00;11.57;;;6.60;;
39918;SDS011;25589;51.552;13.424;2023-02-15T14:43:14;9.93;;;5.80;;
39918;SDS011;25589;51.552;13.424;2023-02-15T14:46:00;10.18;;;5.55;;
39918;SDS011;25589;51.552;13.424;2023-02-15T14:48:31;13.52;;;6.57;;
39918;SDS011;25589;51.552;13.424;2023-02-15T14:51:03;9.95;;;5.70;;
39918;SDS011;25589;51.552;13.424;2023-02-15T14:58:36;12.60;;;5.57;;
39918;SDS011;25589;51.552;13.424;2023-02-15T15:01:09;9.68;;;5.85;;
39918;SDS011;25589;51.552;13.424;2023-02-15T15:03:35;7.97;;;5.68;;
39918;SDS011;25589;51.552;13.424;2023-02-15T15:06:27;11.35;;;6.40;;
39918;SDS011;25589;51.552;13.424;2023-02-15T15:08:57;8.50;;;5.75;;
39918;SDS011;25589;51.552;13.424;2023-02-15T15:11:45;9.57;;;5.82;;
39918;SDS011;25589;51.552;13.424;2023-02-15T15:16:56;5.90;;;4.63;;
39918;SDS011;25589;51.552;13.424;2023-02-15T15:22:32;8.95;;;5.38;;
39918;SDS011;25589;51.552;13.424;2023-02-15T15:24:58;6.60;;;4.75;;
39918;SDS011;25589;51.552;13.424;2023-02-15T15:32:44;7.65;;;4.68;;
39918;SDS011;25589;51.552;13.424;2023-02-15T15:47:24;8.73;;;5.50;;
39918;SDS011;25589;51.552;13.424;2023-02-15T15:50:18;11.55;;;6.65;;
39918;SDS011;25589;51.552;13.424;2023-02-15T15:52:50;13.02;;;7.13;;
39918;SDS011;25589;51.552;13.424;2023-02-15T15:55:26;10.38;;;6.47;;
39918;SDS011;25589;51.552;13.424;2023-02-15T15:57:58;8.88;;;5.20;;
39918;SDS011;25589;51.552;13.424;2023-02-15T16:03:27;9.75;;;6.03;;
39918;SDS011;25589;51.552;13.424;2023-02-15T16:05:54;9.15;;;5.13;;
39918;SDS011;25589;51.552;13.424;2023-02-15T16:08:28;9.07;;;5.82;;
39918;SDS011;25589;51.552;13.424;2023-02-15T16:10:59;10.05;;;6.38;;
39918;SDS011;25589;51.552;13.424;2023-02-15T16:13:27;11.48;;;6.57;;
39918;SDS011;25589;51.552;13.424;2023-02-15T16:15:53;12.52;;;7.30;;
39918;SDS011;25589;51.552;13.424;2023-02-15T16:18:25;12.82;;;8.00;;
39918;SDS011;25589;51.552;13.424;2023-02-15T16:20:53;13.20;;;7.88;;
39918;SDS011;25589;51.552;13.424;2023-02-15T16:26:31;16.10;;;7.70;;
39918;SDS011;25589;51.552;13.424;2023-02-15T16:29:13;15.15;;;8.07;;
39918;SDS011;25589;51.552;13.424;2023-02-15T16:31:41;15.10;;;8.27;;
39918;SDS011;25589;51.552;13.424;2023-02-15T16:34:09;14.05;;;7.88;;
39918;SDS011;25589;51.552;13.424;2023-02-15T16:36:41;12.45;;;7.35;;
39918;SDS011;25589;51.552;13.424;2023-02-15T16:39:08;10.65;;;6.70;;
39918;SDS011;25589;51.552;13.424;2023-02-15T16:41:41;10.65;;;6.05;;
39918;SDS011;25589;51.552;13.424;2023-02-15T16:44:20;12.35;;;7.20;;
39918;SDS011;25589;51.552;13.424;2023-02-15T16:46:49;12.88;;;8.57;;
39918;SDS011;25589;51.552;13.424;2023-02-15T16:49:19;15.40;;;8.60;;
39918;SDS011;25589;51.552;13.424;2023-02-15T16:54:48;15.57;;;9.35;;